Time;durP1;ratioP1;P1;durP2;ratioP2;P2;SDS_P1;SDS_P2;PMS_P1;PMS_P2;Temp;Humidity;BMP_temperature;BMP_pressure;BME280_temperature;BME280_humidity;BME280_pressure;Samples;Min_cycle;Max_cycle;Signal;HPM_P1;HPM_P2
2023/05/04 00:01:01;;;;;;;6.47;5.40;;;;;;;12.46;100.00;100869.09;5547098;32;34798;-70
2023/05/04 00:04:04;;;;;;;9.00;6.12;;;;;;;12.44;100.00;100863.13;5547197;32;34361;-70
2023/05/04 00:07:08;;;;;;;8.30;5.72;;;;;;;12.32;100.00;100867.09;5547017;32;34776;-70
2023/05/04 00:10:12;;;;;;;7.20;6.07;;;;;;;12.28;100.00;100866.63;5547012;32;33823;-70
2023/05/04 00:13:15;;;;;;;7.20;6.07;;;;;;;12.30;100.00;100863.78;5548441;32;33660;-70
2023/05/04 00:16:18;;;;;;;8.18;6.68;;;;;;;12.33;100.00;100866.12;5549365;32;33881;-70
2023/05/04 00:19:21;;;;;;;7.20;6.50;;;;;;;12.35;100.00;100869.41;5549347;32;33612;-70
2023/05/04 00:22:24;;;;;;;9.23;6.82;;;;;;;12.39;100.00;100865.47;5549331;32;33701;-69
2023/05/04 00:25:26;;;;;;;11.27;7.37;;;;;;;12.34;100.00;100859.81;5549393;32;33862;-70
2023/05/04 00:28:29;;;;;;;7.90;7.10;;;;;;;12.30;100.00;100850.47;5549650;32;33704;-70
2023/05/04 00:31:34;;;;;;;8.40;7.28;;;;;;;12.27;100.00;100858.78;5549250;32;34502;-69
2023/05/04 00:34:37;;;;;;;13.27;7.93;;;;;;;12.24;100.00;100854.66;5549132;32;33632;-70
2023/05/04 00:37:39;;;;;;;12.70;7.57;;;;;;;12.19;100.00;100849.84;5549209;32;34358;-69
2023/05/04 00:40:43;;;;;;;10.10;7.68;;;;;;;12.13;100.00;100853.16;5549193;32;34768;-70
2023/05/04 00:43:46;;;;;;;10.23;7.90;;;;;;;12.09;100.00;100853.66;5549183;32;34340;-70
2023/05/04 00:46:51;;;;;;;12.85;8.68;;;;;;;12.02;100.00;100861.44;5549075;32;33830;-69
2023/05/04 00:49:54;;;;;;;10.52;8.27;;;;;;;12.04;100.00;100862.12;5549102;32;34388;-70
2023/05/04 00:53:00;;;;;;;10.15;8.43;;;;;;;12.00;100.00;100866.12;5549020;32;33598;-69
2023/05/04 00:56:05;;;;;;;10.73;7.97;;;;;;;12.04;100.00;100861.28;5549151;32;33846;-69
2023/05/04 00:59:08;;;;;;;9.90;8.15;;;;;;;12.05;100.00;100862.97;5549362;32;34476;-70
2023/05/04 01:02:11;;;;;;;10.75;7.95;;;;;;;12.09;100.00;100865.13;5548965;32;33766;-70
2023/05/04 01:05:14;;;;;;;10.02;7.70;;;;;;;12.17;100.00;100857.13;5548944;32;34464;-70
2023/05/04 01:08:20;;;;;;;9.57;7.68;;;;;;;12.09;100.00;100865.13;5549111;32;34465;-70
2023/05/04 01:11:32;;;;;;;11.50;7.93;;;;;;;12.07;100.00;100867.09;5548059;32;33609;-70
2023/05/04 01:14:36;;;;;;;10.20;7.82;;;;;;;12.08;100.00;100863.47;5549251;32;33417;-70
2023/05/04 01:17:39;;;;;;;9.55;7.62;;;;;;;12.12;100.00;100864.78;5548965;32;33536;-69
2023/05/04 01:20:43;;;;;;;10.07;8.35;;;;;;;12.11;100.00;100868.44;5548881;32;34284;-69
2023/05/04 01:23:45;;;;;;;11.63;8.15;;;;;;;12.14;100.00;100864.63;5548091;32;34404;-70
2023/05/04 01:26:54;;;;;;;12.65;7.53;;;;;;;12.12;100.00;100855.97;5548944;32;33534;-69
2023/05/04 01:30:21;;;;;;;8.57;7.30;;;;;;;12.17;100.00;100856.31;5549062;32;33399;-70
2023/05/04 01:33:27;;;;;;;11.38;7.87;;;;;;;12.11;100.00;100846.31;5548705;32;33844;-70
2023/05/04 01:36:31;;;;;;;9.27;8.20;;;;;;;12.07;100.00;100861.78;5548075;32;33796;-70
2023/05/04 01:39:34;;;;;;;8.95;7.18;;;;;;;12.04;100.00;100858.62;5548697;32;34485;-70
2023/05/04 01:42:37;;;;;;;10.02;7.97;;;;;;;12.02;100.00;100852.62;5547850;32;35338;-70
2023/05/04 01:45:39;;;;;;;8.10;7.22;;;;;;;12.01;100.00;100850.97;5548636;32;33806;-70
2023/05/04 01:48:42;;;;;;;8.85;7.95;;;;;;;11.98;100.00;100852.16;5548507;32;33508;-70
2023/05/04 01:51:45;;;;;;;8.35;7.37;;;;;;;11.97;100.00;100854.97;5548621;32;33651;-70
2023/05/04 01:54:48;;;;;;;8.85;7.53;;;;;;;11.92;100.00;100849.31;5548039;32;33740;-70
2023/05/04 01:57:51;;;;;;;10.63;7.93;;;;;;;11.92;100.00;100844.81;5548902;32;34269;-70
2023/05/04 02:00:58;;;;;;;10.40;7.10;;;;;;;11.94;100.00;100839.34;5547597;32;34432;-69
2023/05/04 02:04:02;;;;;;;8.10;6.85;;;;;;;12.08;100.00;100836.87;5548503;32;34397;-70
2023/05/04 02:07:05;;;;;;;12.00;7.22;;;;;;;12.09;100.00;100829.72;5548408;32;34775;-70
2023/05/04 02:10:08;;;;;;;7.47;6.37;;;;;;;12.05;100.00;100831.84;5548444;32;33658;-70
2023/05/04 02:13:12;;;;;;;7.68;5.95;;;;;;;12.06;100.00;100835.34;5548401;32;33760;-70
2023/05/04 02:16:15;;;;;;;7.15;5.90;;;;;;;12.11;100.00;100835.69;5548376;32;34858;-70
2023/05/04 02:19:18;;;;;;;5.72;4.30;;;;;;;12.07;100.00;100831.69;5548364;32;33717;-69
2023/05/04 02:22:21;;;;;;;6.05;4.10;;;;;;;12.11;100.00;100835.69;5548338;32;34277;-70
2023/05/04 02:25:26;;;;;;;4.10;3.50;;;;;;;12.09;100.00;100827.91;5548398;32;33676;-70
2023/05/04 02:28:29;;;;;;;4.57;3.37;;;;;;;12.09;100.00;100843.84;5548270;32;33739;-69
2023/05/04 02:31:32;;;;;;;4.62;3.50;;;;;;;12.09;100.00;100835.88;5548217;32;33839;-70
2023/05/04 02:34:36;;;;;;;3.50;3.00;;;;;;;11.96;100.00;100842.66;5548125;32;34573;-69
2023/05/04 02:37:39;;;;;;;4.03;2.85;;;;;;;11.91;100.00;100843.16;5548122;32;33893;-70
2023/05/04 02:40:42;;;;;;;3.83;3.03;;;;;;;11.79;100.00;100838.34;5548028;32;33915;-70
2023/05/04 02:43:45;;;;;;;2.65;2.35;;;;;;;11.65;100.00;100851.25;5547315;32;34794;-70
2023/05/04 02:46:48;;;;;;;3.58;2.80;;;;;;;11.65;100.00;100850.41;5548438;32;33736;-70
2023/05/04 02:49:50;;;;;;;4.20;2.67;;;;;;;11.62;100.00;100850.72;5548212;32;33530;-70
2023/05/04 02:52:53;;;;;;;5.35;2.87;;;;;;;11.55;100.00;100850.56;5548002;32;33634;-70
2023/05/04 02:55:56;;;;;;;3.60;2.50;;;;;;;11.51;100.00;100849.22;5547996;32;33836;-70
2023/05/04 02:58:58;;;;;;;3.87;2.50;;;;;;;11.46;100.00;100848.88;5547094;32;33781;-70
2023/05/04 03:02:01;;;;;;;4.90;3.00;;;;;;;11.42;100.00;100854.69;5548210;32;33672;-70
2023/05/04 03:05:05;;;;;;;3.03;2.60;;;;;;;11.38;100.00;100859.47;5547979;32;33844;-70
2023/05/04 03:08:08;;;;;;;6.62;2.65;;;;;;;11.37;100.00;100855.16;5547895;32;33860;-70
2023/05/04 03:11:15;;;;;;;5.47;2.95;;;;;;;11.38;100.00;100862.12;5547937;32;33534;-69
2023/05/04 03:14:18;;;;;;;3.60;2.47;;;;;;;11.43;100.00;100858.97;5547839;32;33614;-70
2023/05/04 03:17:20;;;;;;;3.00;2.65;;;;;;;11.32;100.00;100850.34;5547884;32;33677;-70
2023/05/04 03:20:24;;;;;;;3.60;2.42;;;;;;;11.30;100.00;100856.78;5547766;32;33731;-70
2023/05/04 03:23:26;;;;;;;3.95;2.50;;;;;;;11.31;100.00;100861.13;5548050;32;33534;-70
2023/05/04 03:26:30;;;;;;;3.28;2.78;;;;;;;11.29;100.00;100865.75;5547984;32;33690;-69
2023/05/04 03:29:33;;;;;;;2.58;2.15;;;;;;;11.32;100.00;100866.28;5547701;32;33870;-70
2023/05/04 03:32:36;;;;;;;5.03;2.42;;;;;;;11.37;100.00;100868.44;5546193;32;33983;-70
2023/05/04 03:35:39;;;;;;;3.00;2.37;;;;;;;11.39;100.00;100863.78;5547537;32;33648;-70
2023/05/04 03:38:42;;;;;;;5.12;2.45;;;;;;;11.50;100.00;100873.28;5547485;32;33764;-70
2023/05/04 03:41:44;;;;;;;4.70;2.40;;;;;;;11.53;100.00;100868.47;5547771;32;34290;-69
2023/05/04 03:44:47;;;;;;;4.12;2.50;;;;;;;11.62;100.00;100864.84;5546539;32;34715;-70
2023/05/04 03:47:50;;;;;;;3.45;2.50;;;;;;;11.71;100.00;100877.16;5543548;32;33800;-70
2023/05/04 03:50:56;;;;;;;3.22;2.03;;;;;;;11.79;100.00;100875.56;5544836;32;34194;-70
2023/05/04 03:54:00;;;;;;;8.00;2.22;;;;;;;11.82;100.00;100873.38;5547636;32;33592;-71
2023/05/04 03:57:03;;;;;;;4.90;2.35;;;;;;;11.90;100.00;100878.75;5547257;32;34592;-70
2023/05/04 04:00:07;;;;;;;3.08;2.42;;;;;;;12.02;100.00;100885.38;5546371;32;33671;-71
2023/05/04 04:03:16;;;;;;;4.72;2.58;;;;;;;11.98;100.00;100889.38;5547172;32;33846;-70
2023/05/04 04:06:19;;;;;;;4.07;2.83;;;;;;;11.91;100.00;100880.38;5546894;32;34061;-71
2023/05/04 04:09:22;;;;;;;4.35;2.92;;;;;;;11.83;100.00;100885.69;5546736;32;33678;-71
2023/05/04 04:12:26;;;;;;;4.40;3.12;;;;;;;11.75;100.00;100877.72;5547007;32;33637;-71
2023/05/04 04:15:28;;;;;;;6.05;3.33;;;;;;;11.71;100.00;100889.62;5546695;32;33596;-71
2023/05/04 04:18:31;;;;;;;5.82;3.58;;;;;;;11.77;100.00;100881.84;5546712;32;34757;-70
2023/05/04 04:21:35;;;;;;;8.35;6.35;;;;;;;11.77;100.00;100895.16;5527634;32;34327;-71
2023/05/04 04:24:37;;;;;;;8.55;6.30;;;;;;;11.91;100.00;100892.88;5527359;32;33589;-70
2023/05/04 04:27:40;;;;;;;8.25;6.47;;;;;;;11.88;100.00;100891.34;5542076;32;33840;-71
2023/05/04 04:30:47;;;;;;;9.43;6.12;;;;;;;11.94;100.00;100896.03;5546573;32;34406;-71
2023/05/04 04:33:50;;;;;;;10.43;6.18;;;;;;;11.80;100.00;100899.31;5546655;32;33789;-71
2023/05/04 04:36:53;;;;;;;11.30;6.65;;;;;;;11.89;100.00;100893.03;5546543;32;34352;-72
2023/05/04 04:39:55;;;;;;;8.82;6.50;;;;;;;12.05;100.00;100897.53;5539379;32;34516;-70
2023/05/04 04:42:58;;;;;;;13.35;6.07;;;;;;;12.00;100.00;100898.03;5527229;32;33134;-71
2023/05/04 04:46:02;;;;;;;8.25;5.70;;;;;;;12.12;100.00;100899.34;5529440;32;33761;-70
2023/05/04 04:49:06;;;;;;;8.98;5.93;;;;;;;12.24;100.00;100909.69;5544639;32;33774;-71
2023/05/04 04:52:09;;;;;;;7.75;5.82;;;;;;;12.26;100.00;100910.34;5546201;32;34550;-71
2023/05/04 04:55:15;;;;;;;9.45;5.20;;;;;;;12.32;100.00;100904.34;5546345;32;33703;-71
2023/05/04 04:58:18;;;;;;;6.28;4.60;;;;;;;12.37;100.00;100910.00;5546140;32;34337;-70
2023/05/04 05:01:21;;;;;;;5.28;3.75;;;;;;;12.33;100.00;100904.19;5548711;32;34481;-71
2023/05/04 05:04:24;;;;;;;7.78;3.90;;;;;;;12.39;100.00;100914.16;5548749;32;33764;-72
2023/05/04 05:07:27;;;;;;;7.18;4.30;;;;;;;12.39;100.00;100914.16;5533917;32;33737;-71
2023/05/04 05:10:37;;;;;;;5.45;3.97;;;;;;;12.45;100.00;100910.84;5528888;32;33920;-71
2023/05/04 05:13:40;;;;;;;5.60;3.85;;;;;;;12.46;100.00;100901.84;5529370;32;33622;-71
2023/05/04 05:16:43;;;;;;;6.30;3.83;;;;;;;12.63;100.00;100910.69;5529319;32;33795;-71
2023/05/04 05:19:45;;;;;;;4.35;3.12;;;;;;;12.68;100.00;100916.31;5529198;32;33641;-71
2023/05/04 05:22:49;;;;;;;6.50;3.33;;;;;;;12.63;100.00;100921.31;5531838;32;33709;-71
2023/05/04 05:25:52;;;;;;;7.60;3.30;;;;;;;12.69;100.00;100923.28;5534384;32;33468;-71
2023/05/04 05:28:55;;;;;;;6.00;3.17;;;;;;;12.86;100.00;100924.13;5541616;32;34008;-70
2023/05/04 05:31:58;;;;;;;3.92;2.83;;;;;;;13.05;100.00;100921.06;5546591;32;33528;-71
2023/05/04 05:35:01;;;;;;;5.47;3.20;;;;;;;13.00;100.00;100928.75;5534910;32;33979;-71
2023/05/04 05:38:04;;;;;;;5.05;3.10;;;;;;;13.08;100.00;100931.38;5537713;32;34007;-71
2023/05/04 05:41:08;;;;;;;5.60;2.42;;;;;;;13.28;100.00;100927.34;5547971;32;33823;-72
2023/05/04 05:44:11;;;;;;;3.40;2.00;;;;;;;13.32;100.00;100926.00;5546945;32;33730;-71
2023/05/04 05:47:14;;;;;;;2.87;2.10;;;;;;;13.44;100.00;100923.81;5528565;32;34278;-69
2023/05/04 05:50:17;;;;;;;3.80;2.00;;;;;;;13.46;100.00;100927.09;5531428;32;34380;-70
2023/05/04 05:53:20;;;;;;;1.90;1.70;;;;;;;13.54;100.00;100934.25;5547799;32;34368;-71
2023/05/04 05:56:23;;;;;;;3.65;2.00;;;;;;;13.75;100.00;100934.47;5547348;32;34364;-71
2023/05/04 05:59:26;;;;;;;4.75;2.05;;;;;;;13.67;100.00;100934.53;5536751;32;34457;-71
2023/05/04 06:02:29;;;;;;;4.00;2.08;;;;;;;13.54;100.00;100944.91;5539287;32;34869;-71
2023/05/04 06:05:35;;;;;;;3.65;1.95;;;;;;;13.93;100.00;100940.38;5547324;32;34326;-71
2023/05/04 06:08:37;;;;;;;2.33;2.00;;;;;;;13.85;100.00;100935.91;5539227;32;33723;-72
2023/05/04 06:11:41;;;;;;;4.47;2.10;;;;;;;13.67;100.00;100937.19;5533511;32;33944;-70
2023/05/04 06:14:44;;;;;;;3.35;2.10;;;;;;;13.73;100.00;100933.84;5536876;32;34750;-71
2023/05/04 06:17:48;;;;;;;7.03;2.00;;;;;;;13.88;100.00;100934.75;5539081;32;34312;-70
2023/05/04 06:21:00;;;;;;;4.90;1.90;;;;;;;14.14;100.00;100937.91;5530459;32;32732;-72
2023/05/04 06:24:03;;;;;;;9.15;2.40;;;;;;;14.27;100.00;100940.00;5540012;32;35167;-71
2023/05/04 06:27:06;;;;;;;7.37;2.10;;;;;;;14.37;100.00;100948.63;5532415;32;33822;-70
2023/05/04 06:30:10;;;;;;;2.80;2.12;;;;;;;14.60;100.00;100945.94;5534550;32;33839;-71
2023/05/04 06:33:16;;;;;;;3.53;2.10;;;;;;;14.71;100.00;100957.03;5528515;32;33795;-70
2023/05/04 06:36:19;;;;;;;2.90;2.17;;;;;;;14.87;100.00;100953.34;5537710;32;33780;-71
2023/05/04 06:39:22;;;;;;;2.40;1.90;;;;;;;14.71;100.00;100954.34;5533044;32;33896;-70
2023/05/04 06:42:28;;;;;;;3.10;1.98;;;;;;;14.95;100.00;100944.44;5527974;32;34258;-72
2023/05/04 06:45:35;;;;;;;2.50;2.00;;;;;;;15.14;98.16;100949.25;5528460;32;33811;-71
2023/05/04 06:48:37;;;;;;;3.45;2.03;;;;;;;15.27;97.18;100948.59;5527547;32;32268;-71
2023/05/04 06:51:40;;;;;;;3.85;2.20;;;;;;;15.36;97.67;100953.69;5528379;32;33479;-71
2023/05/04 06:54:43;;;;;;;3.33;2.40;;;;;;;15.72;92.87;100945.75;5530846;32;33646;-70
2023/05/04 06:57:46;;;;;;;3.28;2.50;;;;;;;15.59;93.19;100958.94;5530436;32;32560;-71
2023/05/04 07:00:50;;;;;;;2.97;2.20;;;;;;;15.79;93.17;100964.53;5540390;32;33571;-71
2023/05/04 07:03:52;;;;;;;4.57;2.10;;;;;;;16.00;90.38;100964.59;5530935;32;34027;-72
2023/05/04 07:06:56;;;;;;;4.07;1.80;;;;;;;16.11;88.69;100960.59;5528908;32;33440;-73
2023/05/04 07:09:58;;;;;;;4.62;2.28;;;;;;;16.01;89.36;100961.75;5528211;32;35159;-72
2023/05/04 07:13:02;;;;;;;3.15;1.95;;;;;;;15.96;87.95;100952.63;5528237;32;34729;-72
2023/05/04 07:16:08;;;;;;;5.95;2.25;;;;;;;16.15;87.55;100953.84;5528296;32;33740;-72
2023/05/04 07:19:11;;;;;;;4.28;2.17;;;;;;;15.87;87.01;100956.44;5528004;32;33744;-72
2023/05/04 07:22:14;;;;;;;5.10;1.95;;;;;;;15.93;90.01;100948.44;5526844;32;33784;-71
2023/05/04 07:25:16;;;;;;;4.93;2.08;;;;;;;16.67;84.68;100956.22;5551440;32;33701;-73
2023/05/04 07:28:19;;;;;;;2.70;2.30;;;;;;;17.27;79.59;100959.16;5547388;32;34351;-72
2023/05/04 07:31:22;;;;;;;6.47;1.85;;;;;;;18.61;71.87;100955.72;5547406;32;35110;-72
2023/05/04 07:34:25;;;;;;;2.22;1.60;;;;;;;19.52;65.25;100953.13;5547740;32;33466;-72
2023/05/04 07:37:43;;;;;;;3.05;1.70;;;;;;;19.65;63.84;100946.88;5547340;32;34361;-72
2023/05/04 07:40:47;;;;;;;4.60;1.77;;;;;;;19.92;61.31;100957.31;5547353;32;34441;-72
2023/05/04 07:43:50;;;;;;;8.05;1.77;;;;;;;20.10;60.75;100959.28;5547017;32;33539;-73
2023/05/04 07:46:53;;;;;;;2.78;1.80;;;;;;;20.15;59.40;100953.25;5547035;32;34040;-71
2023/05/04 07:49:56;;;;;;;4.60;2.12;;;;;;;20.89;56.34;100957.91;5538910;32;216447;-72
2023/05/04 07:52:58;;;;;;;6.70;2.22;;;;;;;21.32;54.67;100950.66;5547026;32;34259;-73
2023/05/04 07:56:10;;;;;;;16.12;2.40;;;;;;;21.95;52.82;100953.03;5546775;32;33558;-75
2023/05/04 07:59:12;;;;;;;2.17;1.73;;;;;;;22.30;52.43;100958.59;5546008;32;33767;-71
2023/05/04 08:02:15;;;;;;;8.80;1.80;;;;;;;22.73;49.92;100955.66;5542004;32;34998;-69
2023/05/04 08:05:18;;;;;;;4.78;1.73;;;;;;;22.76;50.48;100955.16;5538177;32;34443;-71
2023/05/04 08:08:21;;;;;;;4.68;2.00;;;;;;;23.29;48.63;100946.94;5526164;32;34694;-72
2023/05/04 08:11:25;;;;;;;2.40;1.90;;;;;;;23.09;49.54;100957.31;5538188;32;33711;-71
2023/05/04 08:14:28;;;;;;;2.45;2.20;;;;;;;24.58;44.73;100959.00;5532191;32;34660;-72
2023/05/04 08:17:31;;;;;;;5.32;1.98;;;;;;;24.48;43.80;100956.94;5527326;32;34556;-71
2023/05/04 08:20:34;;;;;;;1.70;1.52;;;;;;;22.77;46.15;100959.53;5530288;32;33578;-70
2023/05/04 08:23:37;;;;;;;4.55;1.83;;;;;;;23.68;44.89;100951.59;5545813;32;34217;-71
2023/05/04 08:26:40;;;;;;;1.73;1.45;;;;;;;22.69;47.44;100960.69;5536372;32;35083;-70
2023/05/04 08:29:45;;;;;;;4.15;1.60;;;;;;;23.50;45.24;100953.66;5546287;32;34196;-70
2023/05/04 08:32:50;;;;;;;3.70;1.70;;;;;;;23.43;44.90;100959.16;5546604;32;34061;-70
2023/05/04 08:35:53;;;;;;;3.33;1.70;;;;;;;22.64;46.66;100962.44;5548520;32;33518;-69
2023/05/04 08:38:55;;;;;;;2.85;1.67;;;;;;;21.13;50.11;100954.38;5548795;32;34756;-71
2023/05/04 08:41:59;;;;;;;5.15;1.85;;;;;;;21.69;49.50;100955.00;5546943;32;34424;-70
2023/05/04 08:45:06;;;;;;;7.32;1.90;;;;;;;21.71;50.62;100971.00;5542437;32;33679;-72
2023/05/04 08:48:09;;;;;;;14.75;2.37;;;;;;;20.64;53.00;100963.31;5541766;32;32432;-70
2023/05/04 08:51:12;;;;;;;3.20;2.05;;;;;;;20.24;56.56;100960.03;5548692;32;33851;-70
2023/05/04 08:54:16;;;;;;;5.40;1.90;;;;;;;20.00;56.48;100960.78;5548478;32;33744;-69
2023/05/04 08:57:21;;;;;;;5.55;2.00;;;;;;;19.92;55.97;100960.00;5548495;32;33960;-69
2023/05/04 09:00:25;;;;;;;2.67;1.85;;;;;;;21.57;51.89;100964.09;5543703;32;33834;-71
2023/05/04 09:03:28;;;;;;;1.90;1.62;;;;;;;21.66;49.74;100963.56;5529352;32;33848;-70
2023/05/04 09:06:32;;;;;;;2.75;1.70;;;;;;;21.81;51.45;100965.87;5529550;32;33812;-70
2023/05/04 09:09:35;;;;;;;8.10;2.08;;;;;;;23.31;47.59;100956.47;5529115;32;33796;-71
2023/05/04 09:12:38;;;;;;;5.78;1.90;;;;;;;23.50;47.70;100951.75;5529362;32;34708;-72
2023/05/04 09:15:41;;;;;;;4.43;1.90;;;;;;;25.45;41.22;100957.34;5528689;32;33744;-72
2023/05/04 09:18:44;;;;;;;4.05;1.80;;;;;;;25.77;41.24;100962.94;5534938;32;33419;-72
2023/05/04 09:21:48;;;;;;;5.50;1.80;;;;;;;24.78;41.21;100953.09;5538423;32;33373;-72
2023/05/04 09:24:51;;;;;;;4.40;1.60;;;;;;;24.61;42.94;100950.34;5527945;32;34585;-69
2023/05/04 09:27:54;;;;;;;5.12;1.77;;;;;;;25.23;40.82;100950.25;5529521;32;33901;-69
2023/05/04 09:31:00;;;;;;;6.70;1.75;;;;;;;23.23;43.76;100939.78;5528711;32;33666;-70
2023/05/04 09:34:08;;;;;;;2.08;1.65;;;;;;;24.40;42.45;100951.09;5528975;32;34023;-71
2023/05/04 09:37:12;;;;;;;2.67;1.85;;;;;;;24.41;41.69;100950.84;5528813;32;33733;-70
2023/05/04 09:40:15;;;;;;;4.55;2.00;;;;;;;23.53;42.69;100940.44;5530514;32;33732;-73
2023/05/04 09:43:19;;;;;;;4.53;1.70;;;;;;;23.66;42.50;100951.03;5536265;32;33835;-71
2023/05/04 09:46:22;;;;;;;2.53;1.65;;;;;;;25.05;39.54;100945.91;5529679;32;34998;-70
2023/05/04 09:49:36;;;;;;;4.53;1.40;;;;;;;24.83;39.10;100943.13;5532711;32;34847;-71
2023/05/04 09:52:43;;;;;;;8.48;1.55;;;;;;;23.32;42.31;100941.06;5532714;32;33635;-71
2023/05/04 09:55:50;;;;;;;3.97;1.35;;;;;;;23.40;43.18;100937.97;5528201;32;33489;-73
2023/05/04 09:58:58;;;;;;;4.68;1.50;;;;;;;23.82;41.21;100931.28;5527940;32;33933;-70
2023/05/04 10:02:03;;;;;;;3.35;1.60;;;;;;;25.07;39.01;100933.75;5532098;32;33923;-70
2023/05/04 10:05:24;;;;;;;2.75;1.60;;;;;;;24.47;39.11;100930.06;5529203;32;33797;-71
2023/05/04 10:08:27;;;;;;;3.42;1.62;;;;;;;24.42;39.83;100922.66;5532467;32;33909;-72
2023/05/04 10:11:31;;;;;;;3.20;1.30;;;;;;;25.94;37.65;100920.19;5543305;32;33742;-69
2023/05/04 10:14:35;;;;;;;2.20;1.55;;;;;;;26.39;36.63;100922.53;5538030;32;33705;-70
2023/05/04 10:18:14;;;;;;;5.03;4.00;;;;;;;24.80;39.98;100918.37;5537172;32;33757;-70
2023/05/04 10:21:57;;;;;;;4.03;1.50;;;;;;;25.33;36.90;100915.06;5529446;32;33677;-70
2023/05/04 10:25:13;;;;;;;2.03;1.55;;;;;;;26.24;36.70;100914.25;5539083;32;34565;-71
2023/05/04 10:28:22;;;;;;;3.62;1.40;;;;;;;27.89;34.57;100912.00;5547251;32;33424;-70
2023/05/04 10:31:41;;;;;;;1.85;1.45;;;;;;;28.67;33.08;100901.69;5548123;32;34766;-71
2023/05/04 10:34:44;;;;;;;3.37;1.40;;;;;;;27.57;33.27;100892.28;5542944;32;33949;-72
2023/05/04 10:37:53;;;;;;;4.22;1.33;;;;;;;27.25;33.68;100895.91;5532682;32;33839;-70
2023/05/04 10:40:57;;;;;;;2.30;1.45;;;;;;;28.48;31.89;100889.69;5533115;32;33852;-70
2023/05/04 10:44:05;;;;;;;12.90;2.20;;;;;;;27.89;33.00;100889.34;5538518;32;33821;-71
2023/05/04 10:47:07;;;;;;;3.35;1.60;;;;;;;28.84;31.61;100887.78;5531787;32;33652;-72
2023/05/04 10:50:13;;;;;;;2.00;1.50;;;;;;;29.64;31.05;100894.06;5535493;32;33622;-70
2023/05/04 10:53:17;;;;;;;6.43;1.50;;;;;;;30.71;29.88;100886.75;5535800;32;33629;-71
2023/05/04 10:56:21;;;;;;;2.25;1.60;;;;;;;30.97;29.27;100885.38;5535217;32;34933;-70
2023/05/04 10:59:24;;;;;;;5.53;1.75;;;;;;;33.17;26.23;100877.09;5536267;32;33612;-68
2023/05/04 11:02:27;;;;;;;1.95;1.37;;;;;;;33.21;26.71;100867.13;5536145;32;34040;-70
2023/05/04 11:05:44;;;;;;;1.95;1.35;;;;;;;31.31;27.77;100866.09;5536821;32;33740;-70
2023/05/04 11:08:57;;;;;;;2.92;1.58;;;;;;;29.29;30.17;100862.22;5529183;32;34007;-70
2023/05/04 11:11:59;;;;;;;3.55;1.50;;;;;;;30.97;28.23;100844.28;5538421;32;33539;-70
2023/05/04 11:15:07;;;;;;;2.30;1.50;;;;;;;31.46;28.26;100849.44;5547447;32;33851;-71
2023/05/04 11:18:10;;;;;;;2.62;1.58;;;;;;;31.73;28.31;100848.78;5547171;32;33923;-70
2023/05/04 11:21:23;;;;;;;2.35;1.48;;;;;;;33.89;27.59;100842.22;5547686;32;35269;-74
2023/05/04 11:24:27;;;;;;;4.68;1.60;;;;;;;33.41;25.08;100838.34;5547652;32;33747;-71
2023/05/04 11:27:30;;;;;;;4.65;1.70;;;;;;;33.33;26.00;100833.59;5542166;32;33628;-71
2023/05/04 11:30:34;;;;;;;2.15;1.42;;;;;;;31.49;28.52;100820.59;5527428;32;34236;-72
2023/05/04 11:33:37;;;;;;;6.25;1.60;;;;;;;33.48;26.17;100825.81;5527502;32;34553;-71
2023/05/04 11:36:40;;;;;;;2.15;1.50;;;;;;;31.74;27.18;100820.25;5526843;32;34940;-71
2023/05/04 11:39:43;;;;;;;6.05;1.70;;;;;;;32.09;27.81;100816.13;5526595;32;34204;-71
2023/05/04 11:42:47;;;;;;;5.45;1.70;;;;;;;31.61;28.21;100814.72;5529742;32;34676;-71
2023/05/04 11:45:51;;;;;;;4.50;1.60;;;;;;;31.01;28.84;100808.88;5527824;32;34825;-71
2023/05/04 11:48:54;;;;;;;3.50;1.90;;;;;;;29.80;30.66;100805.34;5528623;32;34596;-71
2023/05/04 11:52:07;;;;;;;2.42;1.80;;;;;;;28.93;30.88;100798.72;5554714;32;33778;-71
2023/05/04 11:55:12;;;;;;;5.10;1.80;;;;;;;27.30;34.94;100793.53;5539542;32;33587;-71
2023/05/04 11:58:23;;;;;;;3.15;1.80;;;;;;;26.77;35.11;100796.25;5527763;32;33983;-71
2023/05/04 12:01:33;;;;;;;3.37;2.35;;;;;;;26.37;36.73;100796.84;5526832;32;34354;-70
2023/05/04 12:04:38;;;;;;;7.32;1.80;;;;;;;25.99;36.91;100791.66;5527065;32;34078;-70
2023/05/04 12:07:41;;;;;;;3.45;2.03;;;;;;;27.16;34.47;100794.00;5526959;32;34013;-70
2023/05/04 12:10:46;;;;;;;3.22;1.80;;;;;;;29.26;30.96;100795.28;5529671;32;34066;-70
2023/05/04 12:14:04;;;;;;;2.97;1.90;;;;;;;32.35;27.79;100792.63;5529532;32;33734;-70
2023/05/04 12:17:06;;;;;;;8.68;2.05;;;;;;;29.73;30.35;100789.25;5536599;32;33708;-71
2023/05/04 12:20:22;;;;;;;4.12;2.00;;;;;;;26.99;34.69;100778.97;5549049;32;34715;-70
2023/05/04 12:23:26;;;;;;;2.65;1.90;;;;;;;25.25;38.13;100780.56;5547243;32;33756;-72
2023/05/04 12:26:29;;;;;;;2.62;1.90;;;;;;;25.68;37.88;100778.84;5534111;32;33939;-70
2023/05/04 12:29:32;;;;;;;5.03;2.05;;;;;;;27.62;34.71;100770.47;5530947;32;33764;-70
2023/05/04 12:32:34;;;;;;;2.85;1.80;;;;;;;31.50;29.06;100773.69;5528931;32;34051;-72
2023/05/04 12:35:37;;;;;;;4.45;2.12;;;;;;;33.54;26.81;100777.00;5544425;32;34723;-71
2023/05/04 12:38:40;;;;;;;4.90;1.77;;;;;;;33.37;26.33;100774.91;5548760;32;33896;-72
2023/05/04 12:41:43;;;;;;;4.65;1.65;;;;;;;33.88;25.54;100776.47;5549217;32;33872;-71
2023/05/04 12:44:45;;;;;;;3.25;1.70;;;;;;;32.63;26.40;100768.75;5548218;32;33865;-70
2023/05/04 12:47:51;;;;;;;3.40;1.80;;;;;;;31.14;28.55;100766.25;5547862;32;34523;-71
2023/05/04 12:50:54;;;;;;;2.45;1.80;;;;;;;30.81;28.75;100757.06;5548788;32;33671;-69
2023/05/04 12:53:57;;;;;;;7.40;1.92;;;;;;;27.95;33.73;100757.38;5548862;32;34679;-70
2023/05/04 12:57:01;;;;;;;5.70;1.77;;;;;;;27.92;34.51;100753.28;5547539;32;33865;-70
2023/05/04 13:00:08;;;;;;;4.10;1.77;;;;;;;30.31;31.22;100747.47;5548445;32;33794;-70
2023/05/04 13:03:11;;;;;;;2.67;1.83;;;;;;;29.66;30.99;100750.50;5535725;32;33864;-71
2023/05/04 13:06:15;;;;;;;3.95;1.80;;;;;;;30.62;29.23;100746.88;5537410;32;34830;-71
2023/05/04 13:09:19;;;;;;;7.40;2.15;;;;;;;29.96;31.33;100744.00;5542177;32;33857;-71
2023/05/04 13:12:26;;;;;;;3.40;1.90;;;;;;;29.52;32.19;100744.03;5534983;32;34611;-70
2023/05/04 13:15:29;;;;;;;7.62;1.70;;;;;;;28.67;33.49;100737.88;5538092;32;34065;-73
2023/05/04 13:18:32;;;;;;;3.35;1.77;;;;;;;33.55;27.04;100746.41;5545338;32;33895;-71
2023/05/04 13:21:35;;;;;;;5.15;2.10;;;;;;;31.97;28.51;100738.09;5545498;32;33749;-71
2023/05/04 13:24:41;;;;;;;4.25;1.90;;;;;;;27.45;35.59;100730.91;5538007;32;33826;-71
2023/05/04 13:27:43;;;;;;;2.80;1.77;;;;;;;26.28;38.00;100719.56;5529171;32;33971;-72
2023/05/04 13:30:47;;;;;;;15.63;2.80;;;;;;;25.11;38.76;100722.28;5531625;32;33781;-70
2023/05/04 13:33:49;;;;;;;2.58;1.70;;;;;;;24.22;41.87;100718.94;5531511;32;33988;-70
2023/05/04 13:36:53;;;;;;;4.03;1.98;;;;;;;24.33;41.18;100717.22;5524172;32;33862;-70
2023/05/04 13:39:55;;;;;;;5.00;2.10;;;;;;;23.20;44.11;100708.25;5532025;32;34162;-70
2023/05/04 13:42:58;;;;;;;3.28;1.90;;;;;;;23.57;44.38;100700.56;5539197;32;34511;-71
2023/05/04 13:46:03;;;;;;;6.43;1.90;;;;;;;23.02;45.84;100711.19;5535127;32;33388;-70
2023/05/04 13:49:06;;;;;;;4.82;2.05;;;;;;;22.50;46.08;100697.66;5540324;32;33998;-70
2023/05/04 13:52:09;;;;;;;7.80;2.33;;;;;;;21.83;48.14;100695.56;5529379;32;33947;-71
2023/05/04 13:55:13;;;;;;;4.70;2.20;;;;;;;21.62;49.15;100696.94;5528845;32;34257;-71
2023/05/04 13:58:15;;;;;;;5.87;2.05;;;;;;;20.95;51.36;100698.09;5538176;32;34714;-70
2023/05/04 14:01:19;;;;;;;4.32;2.22;;;;;;;21.20;50.31;100696.12;5546764;32;35372;-70
2023/05/04 14:04:22;;;;;;;5.35;2.17;;;;;;;21.32;50.16;100683.47;5535590;32;33982;-70
2023/05/04 14:07:25;;;;;;;4.45;3.22;;;;;;;22.15;48.53;100688.78;5538774;32;34000;-70
2023/05/04 14:10:28;;;;;;;4.00;2.17;;;;;;;23.44;46.57;100692.72;5532470;32;34986;-71